sensor_id;sensor_type;location;lat;lon;timestamp;temperature;humidity
10051;DHT22;5065;46.942;7.432;2024-02-14T00:01:31;8.00;99.90
10051;DHT22;5065;46.942;7.432;2024-02-14T00:03:59;8.00;99.90
10051;DHT22;5065;46.942;7.432;2024-02-14T00:06:26;7.90;99.90
10051;DHT22;5065;46.942;7.432;2024-02-14T00:08:55;8.00;99.90
10051;DHT22;5065;46.942;7.432;2024-02-14T00:11:22;7.90;99.90
10051;DHT22;5065;46.942;7.432;2024-02-14T00:13:50;8.00;99.90
10051;DHT22;5065;46.942;7.432;2024-02-14T00:16:17;8.00;99.90
10051;DHT22;5065;46.942;7.432;2024-02-14T00:18:44;8.00;99.90
10051;DHT22;5065;46.942;7.432;2024-02-14T00:21:11;8.00;99.90
10051;DHT22;5065;46.942;7.432;2024-02-14T00:23:38;7.80;99.90
10051;DHT22;5065;46.942;7.432;2024-02-14T00:26:07;7.80;99.90
10051;DHT22;5065;46.942;7.432;2024-02-14T00:28:34;7.70;99.90
10051;DHT22;5065;46.942;7.432;2024-02-14T00:31:01;7.70;99.90
10051;DHT22;5065;46.942;7.432;2024-02-14T00:33:28;7.70;99.90
10051;DHT22;5065;46.942;7.432;2024-02-14T00:35:57;7.70;99.90
10051;DHT22;5065;46.942;7.432;2024-02-14T00:38:24;7.70;99.90
10051;DHT22;5065;46.942;7.432;2024-02-14T00:40:51;7.70;99.90
10051;DHT22;5065;46.942;7.432;2024-02-14T00:43:20;7.60;99.90
10051;DHT22;5065;46.942;7.432;2024-02-14T00:45:47;7.60;99.90
10051;DHT22;5065;46.942;7.432;2024-02-14T00:48:14;7.50;99.90
10051;DHT22;5065;46.942;7.432;2024-02-14T00:50:41;7.50;99.90
10051;DHT22;5065;46.942;7.432;2024-02-14T00:53:09;7.40;99.90
10051;DHT22;5065;46.942;7.432;2024-02-14T00:55:36;7.30;99.90
10051;DHT22;5065;46.942;7.432;2024-02-14T00:58:03;7.30;99.90
10051;DHT22;5065;46.942;7.432;2024-02-14T01:00:32;7.30;99.90
10051;DHT22;5065;46.942;7.432;2024-02-14T01:02:59;7.30;99.90
10051;DHT22;5065;46.942;7.432;2024-02-14T01:05:28;7.30;99.90
10051;DHT22;5065;46.942;7.432;2024-02-14T01:07:55;7.30;99.90
10051;DHT22;5065;46.942;7.432;2024-02-14T01:10:22;7.20;99.90
10051;DHT22;5065;46.942;7.432;2024-02-14T01:12:49;7.20;99.90
10051;DHT22;5065;46.942;7.432;2024-02-14T01:15:16;7.20;99.90
10051;DHT22;5065;46.942;7.432;2024-02-14T01:17:45;7.20;99.90
10051;DHT22;5065;46.942;7.432;2024-02-14T01:20:13;7.20;99.90
10051;DHT22;5065;46.942;7.432;2024-02-14T01:22:41;7.20;99.90
10051;DHT22;5065;46.942;7.432;2024-02-14T01:25:08;7.20;99.90
10051;DHT22;5065;46.942;7.432;2024-02-14T01:27:36;7.20;99.90
10051;DHT22;5065;46.942;7.432;2024-02-14T01:30:04;7.10;99.90
10051;DHT22;5065;46.942;7.432;2024-02-14T01:32:31;7.20;99.90
10051;DHT22;5065;46.942;7.432;2024-02-14T01:35:00;7.20;99.90
10051;DHT22;5065;46.942;7.432;2024-02-14T01:37:27;7.10;99.90
10051;DHT22;5065;46.942;7.432;2024-02-14T01:39:56;7.10;99.90
10051;DHT22;5065;46.942;7.432;2024-02-14T01:42:23;7.10;99.90
10051;DHT22;5065;46.942;7.432;2024-02-14T01:44:50;7.10;99.90
10051;DHT22;5065;46.942;7.432;2024-02-14T01:47:17;7.00;99.90
10051;DHT22;5065;46.942;7.432;2024-02-14T01:49:45;7.10;99.90
10051;DHT22;5065;46.942;7.432;2024-02-14T01:52:14;7.00;99.90
10051;DHT22;5065;46.942;7.432;2024-02-14T01:54:41;7.00;99.90
10051;DHT22;5065;46.942;7.432;2024-02-14T01:57:09;7.00;99.90
10051;DHT22;5065;46.942;7.432;2024-02-14T01:59:37;6.90;99.90
10051;DHT22;5065;46.942;7.432;2024-02-14T02:02:04;6.90;99.90
10051;DHT22;5065;46.942;7.432;2024-02-14T02:04:34;6.90;99.90
10051;DHT22;5065;46.942;7.432;2024-02-14T02:07:01;6.90;99.90
10051;DHT22;5065;46.942;7.432;2024-02-14T02:09:30;6.80;99.90
10051;DHT22;5065;46.942;7.432;2024-02-14T02:11:59;6.80;99.90
10051;DHT22;5065;46.942;7.432;2024-02-14T02:14:27;6.90;99.90
10051;DHT22;5065;46.942;7.432;2024-02-14T02:16:55;6.80;99.90
10051;DHT22;5065;46.942;7.432;2024-02-14T02:19:22;6.90;99.90
10051;DHT22;5065;46.942;7.432;2024-02-14T02:21:49;6.90;99.90
10051;DHT22;5065;46.942;7.432;2024-02-14T02:24:19;6.80;99.90
10051;DHT22;5065;46.942;7.432;2024-02-14T02:26:46;6.80;99.90
10051;DHT22;5065;46.942;7.432;2024-02-14T02:29:13;6.80;99.90
10051;DHT22;5065;46.942;7.432;2024-02-14T02:31:42;6.90;99.90
10051;DHT22;5065;46.942;7.432;2024-02-14T02:34:09;6.90;99.90
10051;DHT22;5065;46.942;7.432;2024-02-14T02:36:37;6.90;99.90
10051;DHT22;5065;46.942;7.432;2024-02-14T02:39:05;6.90;99.90
10051;DHT22;5065;46.942;7.432;2024-02-14T02:41:33;6.90;99.90
10051;DHT22;5065;46.942;7.432;2024-02-14T02:44:00;6.90;99.90
10051;DHT22;5065;46.942;7.432;2024-02-14T02:46:28;6.90;99.90
10051;DHT22;5065;46.942;7.432;2024-02-14T02:48:55;7.00;99.90
10051;DHT22;5065;46.942;7.432;2024-02-14T02:51:22;7.00;99.90
10051;DHT22;5065;46.942;7.432;2024-02-14T02:53:49;7.00;99.90
10051;DHT22;5065;46.942;7.432;2024-02-14T02:56:17;7.00;99.90
10051;DHT22;5065;46.942;7.432;2024-02-14T02:58:47;7.10;99.90
10051;DHT22;5065;46.942;7.432;2024-02-14T03:01:15;7.10;99.90
10051;DHT22;5065;46.942;7.432;2024-02-14T03:03:42;7.20;99.90
10051;DHT22;5065;46.942;7.432;2024-02-14T03:06:09;7.10;99.90
10051;DHT22;5065;46.942;7.432;2024-02-14T03:08:38;7.10;99.90
10051;DHT22;5065;46.942;7.432;2024-02-14T03:11:05;7.10;99.90
10051;DHT22;5065;46.942;7.432;2024-02-14T03:13:33;7.00;99.90
10051;DHT22;5065;46.942;7.432;2024-02-14T03:16:03;6.90;99.90
10051;DHT22;5065;46.942;7.432;2024-02-14T03:18:31;7.00;99.90
10051;DHT22;5065;46.942;7.432;2024-02-14T03:21:00;6.90;99.90
10051;DHT22;5065;46.942;7.432;2024-02-14T03:23:27;6.90;99.90
10051;DHT22;5065;46.942;7.432;2024-02-14T03:25:55;6.90;99.90
10051;DHT22;5065;46.942;7.432;2024-02-14T03:28:22;6.90;99.90
10051;DHT22;5065;46.942;7.432;2024-02-14T03:30:49;6.90;99.90
10051;DHT22;5065;46.942;7.432;2024-02-14T03:33:18;6.90;99.90
10051;DHT22;5065;46.942;7.432;2024-02-14T03:35:45;6.80;99.90
10051;DHT22;5065;46.942;7.432;2024-02-14T03:38:12;6.80;99.90
10051;DHT22;5065;46.942;7.432;2024-02-14T03:40:40;6.70;99.90
10051;DHT22;5065;46.942;7.432;2024-02-14T03:43:07;6.80;99.90
10051;DHT22;5065;46.942;7.432;2024-02-14T03:45:37;6.70;99.90
10051;DHT22;5065;46.942;7.432;2024-02-14T03:48:05;6.60;99.90
10051;DHT22;5065;46.942;7.432;2024-02-14T03:50:34;6.60;99.90
10051;DHT22;5065;46.942;7.432;2024-02-14T03:53:01;6.50;99.90
10051;DHT22;5065;46.942;7.432;2024-02-14T03:55:29;6.50;99.90
10051;DHT22;5065;46.942;7.432;2024-02-14T03:57:56;6.40;99.90
10051;DHT22;5065;46.942;7.432;2024-02-14T04:00:24;6.40;99.90
10051;DHT22;5065;46.942;7.432;2024-02-14T04:02:51;6.50;99.90
10051;DHT22;5065;46.942;7.432;2024-02-14T04:05:24;6.50;99.90
10051;DHT22;5065;46.942;7.432;2024-02-14T04:07:54;6.40;99.90
10051;DHT22;5065;46.942;7.432;2024-02-14T04:10:21;6.40;99.90
10051;DHT22;5065;46.942;7.432;2024-02-14T04:12:48;6.40;99.90
10051;DHT22;5065;46.942;7.432;2024-02-14T04:15:15;6.50;99.90
10051;DHT22;5065;46.942;7.432;2024-02-14T04:17:43;6.50;99.90
10051;DHT22;5065;46.942;7.432;2024-02-14T04:20:10;6.50;99.90
10051;DHT22;5065;46.942;7.432;2024-02-14T04:22:37;6.40;99.90
10051;DHT22;5065;46.942;7.432;2024-02-14T04:25:07;6.40;99.90
10051;DHT22;5065;46.942;7.432;2024-02-14T04:27:34;6.40;99.90
10051;DHT22;5065;46.942;7.432;2024-02-14T04:30:02;6.50;99.90
10051;DHT22;5065;46.942;7.432;2024-02-14T04:32:29;6.60;99.90
10051;DHT22;5065;46.942;7.432;2024-02-14T04:34:57;6.60;99.90
10051;DHT22;5065;46.942;7.432;2024-02-14T04:37:24;6.60;99.90
10051;DHT22;5065;46.942;7.432;2024-02-14T04:39:52;6.60;99.90
10051;DHT22;5065;46.942;7.432;2024-02-14T04:42:20;6.60;99.90
10051;DHT22;5065;46.942;7.432;2024-02-14T04:44:47;6.70;99.90
10051;DHT22;5065;46.942;7.432;2024-02-14T04:47:15;6.60;99.90
10051;DHT22;5065;46.942;7.432;2024-02-14T04:49:42;6.60;99.90
10051;DHT22;5065;46.942;7.432;2024-02-14T04:52:09;6.60;99.90
10051;DHT22;5065;46.942;7.432;2024-02-14T04:54:36;6.60;99.90
10051;DHT22;5065;46.942;7.432;2024-02-14T04:57:03;6.60;99.90
10051;DHT22;5065;46.942;7.432;2024-02-14T04:59:32;6.70;99.90
10051;DHT22;5065;46.942;7.432;2024-02-14T05:01:59;6.60;99.90
10051;DHT22;5065;46.942;7.432;2024-02-14T05:04:26;6.60;99.90
10051;DHT22;5065;46.942;7.432;2024-02-14T05:06:53;6.60;99.90
10051;DHT22;5065;46.942;7.432;2024-02-14T05:09:21;6.60;99.90
10051;DHT22;5065;46.942;7.432;2024-02-14T05:11:48;6.70;99.90
10051;DHT22;5065;46.942;7.432;2024-02-14T05:14:16;6.60;99.90
10051;DHT22;5065;46.942;7.432;2024-02-14T05:16:45;6.60;99.90
10051;DHT22;5065;46.942;7.432;2024-02-14T05:19:12;6.70;99.90
10051;DHT22;5065;46.942;7.432;2024-02-14T05:21:39;6.60;99.90
10051;DHT22;5065;46.942;7.432;2024-02-14T05:24:06;6.60;99.90
10051;DHT22;5065;46.942;7.432;2024-02-14T05:26:34;6.70;99.90
10051;DHT22;5065;46.942;7.432;2024-02-14T05:29:01;6.70;99.90
10051;DHT22;5065;46.942;7.432;2024-02-14T05:31:44;6.70;99.90
10051;DHT22;5065;46.942;7.432;2024-02-14T05:34:12;6.70;99.90
10051;DHT22;5065;46.942;7.432;2024-02-14T05:36:39;6.70;99.90
10051;DHT22;5065;46.942;7.432;2024-02-14T05:39:08;6.80;99.90
10051;DHT22;5065;46.942;7.432;2024-02-14T05:41:35;6.80;99.90
10051;DHT22;5065;46.942;7.432;2024-02-14T05:44:03;6.80;99.90
10051;DHT22;5065;46.942;7.432;2024-02-14T05:46:30;6.80;99.90
10051;DHT22;5065;46.942;7.432;2024-02-14T05:48:59;6.80;99.90
10051;DHT22;5065;46.942;7.432;2024-02-14T05:51:26;6.80;99.90
10051;DHT22;5065;46.942;7.432;2024-02-14T05:53:53;6.90;99.90
10051;DHT22;5065;46.942;7.432;2024-02-14T05:56:20;6.80;99.90
10051;DHT22;5065;46.942;7.432;2024-02-14T05:58:47;6.80;99.90
10051;DHT22;5065;46.942;7.432;2024-02-14T06:01:14;6.80;99.90
10051;DHT22;5065;46.942;7.432;2024-02-14T06:03:42;6.70;99.90
10051;DHT22;5065;46.942;7.432;2024-02-14T06:06:11;6.70;99.90
10051;DHT22;5065;46.942;7.432;2024-02-14T06:08:38;6.60;99.90
10051;DHT22;5065;46.942;7.432;2024-02-14T06:11:05;6.60;99.90
10051;DHT22;5065;46.942;7.432;2024-02-14T06:13:33;6.60;99.90
10051;DHT22;5065;46.942;7.432;2024-02-14T06:16:01;6.60;99.90
10051;DHT22;5065;46.942;7.432;2024-02-14T06:18:29;6.50;99.90
10051;DHT22;5065;46.942;7.432;2024-02-14T06:20:56;6.50;99.90
10051;DHT22;5065;46.942;7.432;2024-02-14T06:23:24;6.50;99.90
10051;DHT22;5065;46.942;7.432;2024-02-14T06:25:52;6.50;99.90
10051;DHT22;5065;46.942;7.432;2024-02-14T06:28:19;6.50;99.90
10051;DHT22;5065;46.942;7.432;2024-02-14T06:30:46;6.50;99.90
10051;DHT22;5065;46.942;7.432;2024-02-14T06:33:13;6.50;99.90
10051;DHT22;5065;46.942;7.432;2024-02-14T06:35:40;6.50;99.90
10051;DHT22;5065;46.942;7.432;2024-02-14T06:38:08;6.50;99.90
10051;DHT22;5065;46.942;7.432;2024-02-14T06:40:36;6.50;99.90
10051;DHT22;5065;46.942;7.432;2024-02-14T06:43:04;6.40;99.90
10051;DHT22;5065;46.942;7.432;2024-02-14T06:45:32;6.40;99.90
10051;DHT22;5065;46.942;7.432;2024-02-14T06:47:59;6.40;99.90
10051;DHT22;5065;46.942;7.432;2024-02-14T06:50:26;6.40;99.90
10051;DHT22;5065;46.942;7.432;2024-02-14T06:52:54;6.50;99.90
10051;DHT22;5065;46.942;7.432;2024-02-14T06:55:25;6.50;99.90
10051;DHT22;5065;46.942;7.432;2024-02-14T06:57:54;6.40;99.90
10051;DHT22;5065;46.942;7.432;2024-02-14T07:00:21;6.50;99.90
10051;DHT22;5065;46.942;7.432;2024-02-14T07:02:48;6.50;99.90
10051;DHT22;5065;46.942;7.432;2024-02-14T07:05:15;6.40;99.90
10051;DHT22;5065;46.942;7.432;2024-02-14T07:07:42;6.40;99.90
10051;DHT22;5065;46.942;7.432;2024-02-14T07:10:10;6.40;99.90
10051;DHT22;5065;46.942;7.432;2024-02-14T07:12:37;6.40;99.90
10051;DHT22;5065;46.942;7.432;2024-02-14T07:15:06;6.40;99.90
10051;DHT22;5065;46.942;7.432;2024-02-14T07:17:34;6.40;99.90
10051;DHT22;5065;46.942;7.432;2024-02-14T07:20:01;6.40;99.90
10051;DHT22;5065;46.942;7.432;2024-02-14T07:22:29;6.50;99.90
10051;DHT22;5065;46.942;7.432;2024-02-14T07:24:56;6.60;99.90
10051;DHT22;5065;46.942;7.432;2024-02-14T07:27:24;6.60;99.90
10051;DHT22;5065;46.942;7.432;2024-02-14T07:29:51;6.60;99.90
10051;DHT22;5065;46.942;7.432;2024-02-14T07:32:20;6.60;99.90
10051;DHT22;5065;46.942;7.432;2024-02-14T07:34:47;6.60;99.90
10051;DHT22;5065;46.942;7.432;2024-02-14T07:37:14;6.60;99.90
10051;DHT22;5065;46.942;7.432;2024-02-14T07:39:44;6.70;99.90
10051;DHT22;5065;46.942;7.432;2024-02-14T07:42:12;6.70;99.90
10051;DHT22;5065;46.942;7.432;2024-02-14T07:44:39;6.70;99.90
10051;DHT22;5065;46.942;7.432;2024-02-14T07:47:06;6.70;99.90
10051;DHT22;5065;46.942;7.432;2024-02-14T07:49:35;6.80;99.90
10051;DHT22;5065;46.942;7.432;2024-02-14T07:52:03;6.80;99.90
10051;DHT22;5065;46.942;7.432;2024-02-14T07:54:30;6.80;99.90
10051;DHT22;5065;46.942;7.432;2024-02-14T07:56:57;6.80;99.90
10051;DHT22;5065;46.942;7.432;2024-02-14T07:59:25;6.90;99.90
10051;DHT22;5065;46.942;7.432;2024-02-14T08:01:52;7.00;99.90
10051;DHT22;5065;46.942;7.432;2024-02-14T08:04:20;7.10;99.90
10051;DHT22;5065;46.942;7.432;2024-02-14T08:06:48;7.20;99.90
10051;DHT22;5065;46.942;7.432;2024-02-14T08:09:15;7.30;99.90
10051;DHT22;5065;46.942;7.432;2024-02-14T08:11:43;7.30;99.90
10051;DHT22;5065;46.942;7.432;2024-02-14T08:14:10;7.40;99.90
10051;DHT22;5065;46.942;7.432;2024-02-14T08:16:38;7.50;99.90
10051;DHT22;5065;46.942;7.432;2024-02-14T08:19:05;7.60;99.90
10051;DHT22;5065;46.942;7.432;2024-02-14T08:21:32;7.70;99.90
10051;DHT22;5065;46.942;7.432;2024-02-14T08:24:01;7.70;99.90
10051;DHT22;5065;46.942;7.432;2024-02-14T08:26:28;7.80;99.90
10051;DHT22;5065;46.942;7.432;2024-02-14T08:28:57;7.90;99.90
10051;DHT22;5065;46.942;7.432;2024-02-14T08:31:24;7.90;99.90
10051;DHT22;5065;46.942;7.432;2024-02-14T08:33:52;7.90;99.90
10051;DHT22;5065;46.942;7.432;2024-02-14T08:36:19;8.00;99.90
10051;DHT22;5065;46.942;7.432;2024-02-14T08:38:47;8.30;99.90
10051;DHT22;5065;46.942;7.432;2024-02-14T08:41:15;8.70;99.90
10051;DHT22;5065;46.942;7.432;2024-02-14T08:43:44;9.20;99.90
10051;DHT22;5065;46.942;7.432;2024-02-14T08:46:11;9.70;99.90
10051;DHT22;5065;46.942;7.432;2024-02-14T08:48:38;9.90;99.90
10051;DHT22;5065;46.942;7.432;2024-02-14T08:51:11;10.00;99.90
10051;DHT22;5065;46.942;7.432;2024-02-14T08:53:38;10.20;99.90
10051;DHT22;5065;46.942;7.432;2024-02-14T08:56:07;10.40;99.90
10051;DHT22;5065;46.942;7.432;2024-02-14T08:58:36;10.50;99.90
10051;DHT22;5065;46.942;7.432;2024-02-14T09:01:03;10.50;99.90
10051;DHT22;5065;46.942;7.432;2024-02-14T09:03:31;10.50;99.90
10051;DHT22;5065;46.942;7.432;2024-02-14T09:05:58;10.30;99.90
10051;DHT22;5065;46.942;7.432;2024-02-14T09:08:25;10.50;99.90
10051;DHT22;5065;46.942;7.432;2024-02-14T09:10:53;10.60;99.90
10051;DHT22;5065;46.942;7.432;2024-02-14T09:13:20;10.80;99.90
10051;DHT22;5065;46.942;7.432;2024-02-14T09:15:49;11.10;99.90
10051;DHT22;5065;46.942;7.432;2024-02-14T09:18:18;11.20;99.90
10051;DHT22;5065;46.942;7.432;2024-02-14T09:20:47;11.20;99.90
10051;DHT22;5065;46.942;7.432;2024-02-14T09:23:16;11.30;99.90
10051;DHT22;5065;46.942;7.432;2024-02-14T09:25:46;11.40;99.90
10051;DHT22;5065;46.942;7.432;2024-02-14T09:28:15;11.50;99.90
10051;DHT22;5065;46.942;7.432;2024-02-14T09:30:42;11.70;99.90
10051;DHT22;5065;46.942;7.432;2024-02-14T09:33:11;11.70;99.90
10051;DHT22;5065;46.942;7.432;2024-02-14T09:35:38;11.80;99.90
10051;DHT22;5065;46.942;7.432;2024-02-14T09:38:10;11.90;99.90
10051;DHT22;5065;46.942;7.432;2024-02-14T09:40:38;12.00;99.90
10051;DHT22;5065;46.942;7.432;2024-02-14T09:43:09;12.00;99.90
10051;DHT22;5065;46.942;7.432;2024-02-14T09:45:40;12.10;99.90
10051;DHT22;5065;46.942;7.432;2024-02-14T09:48:11;12.30;99.90
10051;DHT22;5065;46.942;7.432;2024-02-14T09:50:39;12.50;99.90
10051;DHT22;5065;46.942;7.432;2024-02-14T09:53:07;12.60;99.90
10051;DHT22;5065;46.942;7.432;2024-02-14T09:55:36;12.60;99.90
10051;DHT22;5065;46.942;7.432;2024-02-14T09:58:05;12.60;99.90
10051;DHT22;5065;46.942;7.432;2024-02-14T10:00:36;12.60;99.90
10051;DHT22;5065;46.942;7.432;2024-02-14T10:03:03;12.60;99.90
10051;DHT22;5065;46.942;7.432;2024-02-14T10:05:32;12.60;99.90
10051;DHT22;5065;46.942;7.432;2024-02-14T10:08:00;12.70;99.90
10051;DHT22;5065;46.942;7.432;2024-02-14T10:10:27;12.80;99.90
10051;DHT22;5065;46.942;7.432;2024-02-14T10:12:55;12.90;99.90
10051;DHT22;5065;46.942;7.432;2024-02-14T10:15:22;12.90;99.90
10051;DHT22;5065;46.942;7.432;2024-02-14T10:17:50;13.00;99.90
10051;DHT22;5065;46.942;7.432;2024-02-14T10:20:17;13.00;99.90
10051;DHT22;5065;46.942;7.432;2024-02-14T10:22:47;13.00;99.90
10051;DHT22;5065;46.942;7.432;2024-02-14T10:25:15;13.00;99.90
10051;DHT22;5065;46.942;7.432;2024-02-14T10:27:45;13.00;99.90
10051;DHT22;5065;46.942;7.432;2024-02-14T10:30:14;13.10;99.90
10051;DHT22;5065;46.942;7.432;2024-02-14T10:32:42;13.20;99.90
10051;DHT22;5065;46.942;7.432;2024-02-14T10:35:13;13.20;99.90
10051;DHT22;5065;46.942;7.432;2024-02-14T10:37:41;13.20;99.90
10051;DHT22;5065;46.942;7.432;2024-02-14T10:40:10;13.20;99.90
10051;DHT22;5065;46.942;7.432;2024-02-14T10:42:37;13.20;99.90
10051;DHT22;5065;46.942;7.432;2024-02-14T10:45:05;13.30;99.90
10051;DHT22;5065;46.942;7.432;2024-02-14T10:47:35;13.40;99.90
10051;DHT22;5065;46.942;7.432;2024-02-14T10:50:04;13.50;99.90
10051;DHT22;5065;46.942;7.432;2024-02-14T10:52:33;13.50;99.90
10051;DHT22;5065;46.942;7.432;2024-02-14T10:55:03;13.60;99.90
10051;DHT22;5065;46.942;7.432;2024-02-14T10:57:33;13.60;99.90
10051;DHT22;5065;46.942;7.432;2024-02-14T11:00:02;13.60;99.90
10051;DHT22;5065;46.942;7.432;2024-02-14T11:02:31;13.60;99.90
10051;DHT22;5065;46.942;7.432;2024-02-14T11:05:02;13.60;99.90
10051;DHT22;5065;46.942;7.432;2024-02-14T11:07:31;13.60;99.90
10051;DHT22;5065;46.942;7.432;2024-02-14T11:10:06;13.60;99.90
10051;DHT22;5065;46.942;7.432;2024-02-14T11:12:35;13.70;99.90
10051;DHT22;5065;46.942;7.432;2024-02-14T11:15:10;13.70;99.80
10051;DHT22;5065;46.942;7.432;2024-02-14T11:17:38;13.70;99.40
10051;DHT22;5065;46.942;7.432;2024-02-14T11:20:14;13.70;99.60
10051;DHT22;5065;46.942;7.432;2024-02-14T11:22:52;13.60;99.40
10051;DHT22;5065;46.942;7.432;2024-02-14T11:25:23;13.60;99.90
10051;DHT22;5065;46.942;7.432;2024-02-14T11:27:55;13.70;99.90
10051;DHT22;5065;46.942;7.432;2024-02-14T11:30:29;13.80;99.90
10051;DHT22;5065;46.942;7.432;2024-02-14T11:33:18;13.80;99.90
10051;DHT22;5065;46.942;7.432;2024-02-14T11:35:46;13.90;99.90
10051;DHT22;5065;46.942;7.432;2024-02-14T11:38:15;14.10;99.90
10051;DHT22;5065;46.942;7.432;2024-02-14T11:40:43;14.10;99.90
10051;DHT22;5065;46.942;7.432;2024-02-14T11:43:13;14.20;99.90
10051;DHT22;5065;46.942;7.432;2024-02-14T11:45:42;14.30;99.90
10051;DHT22;5065;46.942;7.432;2024-02-14T11:48:14;14.30;99.90
10051;DHT22;5065;46.942;7.432;2024-02-14T11:50:44;14.40;99.90
10051;DHT22;5065;46.942;7.432;2024-02-14T11:53:11;14.50;99.90
10051;DHT22;5065;46.942;7.432;2024-02-14T11:55:39;14.60;99.90
10051;DHT22;5065;46.942;7.432;2024-02-14T11:58:07;14.60;99.90
10051;DHT22;5065;46.942;7.432;2024-02-14T12:00:39;14.70;99.90
10051;DHT22;5065;46.942;7.432;2024-02-14T12:03:07;14.70;99.90
10051;DHT22;5065;46.942;7.432;2024-02-14T12:05:36;14.80;99.90
10051;DHT22;5065;46.942;7.432;2024-02-14T12:08:05;14.80;99.90
10051;DHT22;5065;46.942;7.432;2024-02-14T12:10:33;14.80;99.90
10051;DHT22;5065;46.942;7.432;2024-02-14T12:13:06;14.80;99.90
10051;DHT22;5065;46.942;7.432;2024-02-14T12:15:39;14.90;99.90
10051;DHT22;5065;46.942;7.432;2024-02-14T12:18:07;14.90;99.90
10051;DHT22;5065;46.942;7.432;2024-02-14T12:20:34;14.90;99.90
10051;DHT22;5065;46.942;7.432;2024-02-14T12:23:03;15.00;99.90
10051;DHT22;5065;46.942;7.432;2024-02-14T12:25:31;15.00;99.90
10051;DHT22;5065;46.942;7.432;2024-02-14T12:27:59;15.00;99.90
10051;DHT22;5065;46.942;7.432;2024-02-14T12:30:44;15.00;99.90
10051;DHT22;5065;46.942;7.432;2024-02-14T12:33:12;15.00;99.90
10051;DHT22;5065;46.942;7.432;2024-02-14T12:35:42;15.00;99.90
10051;DHT22;5065;46.942;7.432;2024-02-14T12:38:13;15.10;99.90
10051;DHT22;5065;46.942;7.432;2024-02-14T12:40:40;15.20;99.90
10051;DHT22;5065;46.942;7.432;2024-02-14T12:43:08;15.20;99.90
10051;DHT22;5065;46.942;7.432;2024-02-14T12:45:36;15.30;99.90
10051;DHT22;5065;46.942;7.432;2024-02-14T12:48:04;15.30;99.90
10051;DHT22;5065;46.942;7.432;2024-02-14T12:50:31;15.30;99.90
10051;DHT22;5065;46.942;7.432;2024-02-14T12:53:00;15.30;99.90
10051;DHT22;5065;46.942;7.432;2024-02-14T12:55:27;15.30;99.90
10051;DHT22;5065;46.942;7.432;2024-02-14T12:57:54;15.20;99.90
10051;DHT22;5065;46.942;7.432;2024-02-14T13:00:21;15.20;99.90
10051;DHT22;5065;46.942;7.432;2024-02-14T13:02:48;15.20;99.90
10051;DHT22;5065;46.942;7.432;2024-02-14T13:05:16;15.20;99.90
10051;DHT22;5065;46.942;7.432;2024-02-14T13:07:43;15.30;99.90
10051;DHT22;5065;46.942;7.432;2024-02-14T13:10:10;15.20;99.90
10051;DHT22;5065;46.942;7.432;2024-02-14T13:12:37;15.20;99.90
10051;DHT22;5065;46.942;7.432;2024-02-14T13:15:05;15.20;99.90
10051;DHT22;5065;46.942;7.432;2024-02-14T13:17:32;15.10;99.90
10051;DHT22;5065;46.942;7.432;2024-02-14T13:19:59;15.00;99.90
10051;DHT22;5065;46.942;7.432;2024-02-14T13:22:28;15.00;99.90
10051;DHT22;5065;46.942;7.432;2024-02-14T13:24:54;15.00;99.90
10051;DHT22;5065;46.942;7.432;2024-02-14T13:27:22;14.90;99.90
10051;DHT22;5065;46.942;7.432;2024-02-14T13:29:49;14.90;99.90
10051;DHT22;5065;46.942;7.432;2024-02-14T13:32:16;14.90;99.90
10051;DHT22;5065;46.942;7.432;2024-02-14T13:34:43;14.80;99.90
10051;DHT22;5065;46.942;7.432;2024-02-14T13:37:10;14.80;99.90
10051;DHT22;5065;46.942;7.432;2024-02-14T13:39:38;14.80;99.90
10051;DHT22;5065;46.942;7.432;2024-02-14T13:42:05;14.80;99.90
10051;DHT22;5065;46.942;7.432;2024-02-14T13:44:33;14.70;99.90
10051;DHT22;5065;46.942;7.432;2024-02-14T13:47:00;14.70;99.90
10051;DHT22;5065;46.942;7.432;2024-02-14T13:49:28;14.70;99.90
10051;DHT22;5065;46.942;7.432;2024-02-14T13:51:55;14.70;99.90
10051;DHT22;5065;46.942;7.432;2024-02-14T13:54:24;14.70;99.90
10051;DHT22;5065;46.942;7.432;2024-02-14T13:56:52;14.70;99.90
10051;DHT22;5065;46.942;7.432;2024-02-14T13:59:20;14.70;99.90
10051;DHT22;5065;46.942;7.432;2024-02-14T14:01:48;14.70;99.90
10051;DHT22;5065;46.942;7.432;2024-02-14T14:04:15;14.70;99.90
10051;DHT22;5065;46.942;7.432;2024-02-14T14:06:42;14.70;99.90
10051;DHT22;5065;46.942;7.432;2024-02-14T14:09:09;14.70;99.90
10051;DHT22;5065;46.942;7.432;2024-02-14T14:11:37;14.70;99.90
10051;DHT22;5065;46.942;7.432;2024-02-14T14:14:06;14.70;99.90
10051;DHT22;5065;46.942;7.432;2024-02-14T14:16:33;14.70;99.90
10051;DHT22;5065;46.942;7.432;2024-02-14T14:19:01;14.70;99.90
10051;DHT22;5065;46.942;7.432;2024-02-14T14:21:29;14.70;99.90
10051;DHT22;5065;46.942;7.432;2024-02-14T14:23:55;14.70;99.90
10051;DHT22;5065;46.942;7.432;2024-02-14T14:26:22;14.70;99.90
10051;DHT22;5065;46.942;7.432;2024-02-14T14:28:50;14.70;99.90
10051;DHT22;5065;46.942;7.432;2024-02-14T14:31:20;14.70;99.90
10051;DHT22;5065;46.942;7.432;2024-02-14T14:33:48;14.70;99.90
10051;DHT22;5065;46.942;7.432;2024-02-14T14:36:15;14.70;99.90
10051;DHT22;5065;46.942;7.432;2024-02-14T14:38:43;14.70;99.90
10051;DHT22;5065;46.942;7.432;2024-02-14T14:41:11;14.70;99.90
10051;DHT22;5065;46.942;7.432;2024-02-14T14:43:38;14.60;99.90
10051;DHT22;5065;46.942;7.432;2024-02-14T14:46:05;14.60;99.90
10051;DHT22;5065;46.942;7.432;2024-02-14T14:48:35;14.70;99.90
10051;DHT22;5065;46.942;7.432;2024-02-14T14:51:02;14.60;99.90
10051;DHT22;5065;46.942;7.432;2024-02-14T14:53:30;14.60;99.90
10051;DHT22;5065;46.942;7.432;2024-02-14T14:55:57;14.60;99.90
10051;DHT22;5065;46.942;7.432;2024-02-14T14:58:26;14.60;99.90
10051;DHT22;5065;46.942;7.432;2024-02-14T15:00:54;14.60;99.90
10051;DHT22;5065;46.942;7.432;2024-02-14T15:03:21;14.60;99.90
10051;DHT22;5065;46.942;7.432;2024-02-14T15:05:50;14.60;99.90
10051;DHT22;5065;46.942;7.432;2024-02-14T15:08:18;14.60;99.90
10051;DHT22;5065;46.942;7.432;2024-02-14T15:10:51;14.60;99.90
10051;DHT22;5065;46.942;7.432;2024-02-14T15:13:18;14.60;99.90
10051;DHT22;5065;46.942;7.432;2024-02-14T15:15:46;14.60;99.90
10051;DHT22;5065;46.942;7.432;2024-02-14T15:18:13;14.50;99.90
10051;DHT22;5065;46.942;7.432;2024-02-14T15:20:40;14.60;99.90
10051;DHT22;5065;46.942;7.432;2024-02-14T15:23:09;14.50;99.90
10051;DHT22;5065;46.942;7.432;2024-02-14T15:25:37;14.50;99.90
10051;DHT22;5065;46.942;7.432;2024-02-14T15:28:08;14.50;99.90
10051;DHT22;5065;46.942;7.432;2024-02-14T15:30:40;14.50;99.90
10051;DHT22;5065;46.942;7.432;2024-02-14T15:33:25;14.50;99.90
10051;DHT22;5065;46.942;7.432;2024-02-14T15:35:54;14.50;99.90
10051;DHT22;5065;46.942;7.432;2024-02-14T15:38:23;14.50;99.90
10051;DHT22;5065;46.942;7.432;2024-02-14T15:40:52;14.40;99.90
10051;DHT22;5065;46.942;7.432;2024-02-14T15:43:23;14.40;99.90
10051;DHT22;5065;46.942;7.432;2024-02-14T15:45:50;14.40;99.90
10051;DHT22;5065;46.942;7.432;2024-02-14T15:48:18;14.40;99.90
10051;DHT22;5065;46.942;7.432;2024-02-14T15:50:46;14.40;99.90
10051;DHT22;5065;46.942;7.432;2024-02-14T15:53:13;14.40;99.90
10051;DHT22;5065;46.942;7.432;2024-02-14T15:55:42;14.30;99.90
10051;DHT22;5065;46.942;7.432;2024-02-14T15:58:10;14.40;99.90
10051;DHT22;5065;46.942;7.432;2024-02-14T16:00:38;14.40;99.90